Time;durP1;ratioP1;P1;durP2;ratioP2;P2;SDS_P1;SDS_P2;PMS_P1;PMS_P2;Temp;Humidity;BMP_temperature;BMP_pressure;BME280_temperature;BME280_humidity;BME280_pressure;Samples;Min_cycle;Max_cycle;Signal;HPM_P1;HPM_P2
2022/07/05 00:01:28;;;;;;;7.17;2.43;;;;;;;-142.08;100.00;71646.13;5049575;28;20249;-65
2022/07/05 00:04:20;;;;;;;7.73;2.87;;;;;;;-142.08;100.00;71646.13;5056700;28;20229;-64
2022/07/05 00:07:43;;;;;;;3.83;2.00;;;;;;;-142.08;100.00;71646.13;5056720;28;20205;-66
2022/07/05 00:11:26;;;;;;;2.63;2.00;;;;;;;-142.08;100.00;71646.13;5053210;28;20630;-67
2022/07/05 00:15:09;;;;;;;3.60;1.90;;;;;;;-142.08;100.00;71646.13;5049885;28;20709;-65
2022/07/05 00:18:51;;;;;;;2.40;2.10;;;;;;;-142.08;100.00;71646.13;5052941;28;20244;-65
2022/07/05 00:22:34;;;;;;;3.77;2.20;;;;;;;-142.08;100.00;71646.13;5045211;28;20650;-66
2022/07/05 00:25:25;;;;;;;19.70;3.27;;;;;;;-142.08;100.00;71646.13;5047937;28;20705;-63
2022/07/05 00:28:10;;;;;;;6.53;2.87;;;;;;;-142.08;100.00;71646.13;5050111;28;20193;-65
2022/07/05 00:30:54;;;;;;;3.60;2.20;;;;;;;-142.08;100.00;71646.13;5037918;28;20789;-66
2022/07/05 00:33:39;;;;;;;6.53;3.00;;;;;;;-142.08;100.00;71646.13;5046302;28;20311;-67
2022/07/05 00:36:23;;;;;;;7.43;2.80;;;;;;;-142.08;100.00;71646.13;5048503;28;20259;-67
2022/07/05 00:39:07;;;;;;;5.37;2.50;;;;;;;-142.08;100.00;71646.13;5051768;28;20643;-67
2022/07/05 00:41:55;;;;;;;6.40;2.60;;;;;;;-142.08;100.00;71646.13;5038501;28;20293;-69
2022/07/05 00:44:53;;;;;;;4.07;2.57;;;;;;;-142.08;100.00;71646.13;5055763;28;20686;-72
2022/07/05 00:48:35;;;;;;;2.80;2.40;;;;;;;-142.08;100.00;71646.13;5049089;28;20213;-68
2022/07/05 00:52:18;;;;;;;4.50;2.53;;;;;;;-142.08;100.00;71646.13;5046904;28;20718;-74
2022/07/05 00:56:01;;;;;;;7.20;2.90;;;;;;;-142.08;100.00;71646.13;5044169;28;20217;-76
2022/07/05 00:59:44;;;;;;;10.20;3.53;;;;;;;-142.08;100.00;71646.13;5034119;28;20730;-76
2022/07/05 01:03:27;;;;;;;4.07;3.00;;;;;;;-142.08;100.00;71646.13;5025347;28;20252;-73
2022/07/05 01:07:10;;;;;;;6.77;3.40;;;;;;;-142.08;100.00;71646.13;5048274;28;20201;-72
2022/07/05 01:10:54;;;;;;;7.67;4.00;;;;;;;-142.08;100.00;71646.13;5049569;28;20210;-73
2022/07/05 01:14:37;;;;;;;6.53;3.37;;;;;;;-142.08;100.00;71646.13;5046442;28;20205;-73
2022/07/05 01:18:21;;;;;;;6.50;3.83;;;;;;;-142.08;100.00;71646.13;5049770;28;20201;-78
2022/07/05 01:22:07;;;;;;;6.67;3.13;;;;;;;-142.08;100.00;71646.13;5067467;28;20244;-74
2022/07/05 01:25:51;;;;;;;5.63;3.13;;;;;;;-142.08;100.00;71646.13;5053955;28;20763;-66
2022/07/05 01:29:34;;;;;;;4.70;3.43;;;;;;;-142.08;100.00;71646.13;5055659;28;20248;-68
2022/07/05 01:33:16;;;;;;;4.90;3.07;;;;;;;-142.08;100.00;71646.13;5053158;28;20193;-69
2022/07/05 01:36:59;;;;;;;11.10;4.07;;;;;;;-142.08;100.00;71646.13;5057478;28;20619;-70
2022/07/05 01:40:43;;;;;;;9.83;3.63;;;;;;;-142.08;100.00;71646.13;5053412;28;20197;-76
2022/07/05 01:44:26;;;;;;;5.27;3.60;;;;;;;-142.08;100.00;71646.13;5049213;28;20733;-73
2022/07/05 01:48:10;;;;;;;7.77;3.60;;;;;;;-142.08;100.00;71646.13;5053077;28;20213;-72
2022/07/05 01:51:59;;;;;;;7.67;3.93;;;;;;;-142.08;100.00;71646.13;5046543;28;20227;-80
2022/07/05 01:55:42;;;;;;;5.07;4.13;;;;;;;-142.08;100.00;71646.13;5045707;28;20197;-77
2022/07/05 01:59:27;;;;;;;6.30;4.90;;;;;;;-142.08;100.00;71646.13;5023087;28;20193;-77
2022/07/05 02:03:10;;;;;;;4.83;3.93;;;;;;;-142.08;100.00;71646.13;5051440;28;20256;-77
2022/07/05 02:06:53;;;;;;;4.90;3.60;;;;;;;-142.08;100.00;71646.13;5052598;28;20210;-74
2022/07/05 02:10:37;;;;;;;8.07;3.87;;;;;;;-142.08;100.00;71646.13;5060661;28;20205;-74
2022/07/05 02:14:19;;;;;;;8.10;3.60;;;;;;;-142.08;100.00;71646.13;5043373;28;20189;-77
2022/07/05 02:18:03;;;;;;;4.87;3.40;;;;;;;-142.08;100.00;71646.13;5037385;28;20202;-75
2022/07/05 02:21:46;;;;;;;4.27;3.30;;;;;;;-142.08;100.00;71646.13;5036432;28;20221;-75
2022/07/05 02:25:33;;;;;;;5.33;3.40;;;;;;;-142.08;100.00;71646.13;5045680;28;20205;-73
2022/07/05 02:28:21;;;;;;;6.00;3.57;;;;;;;-142.08;100.00;71646.13;5034124;28;20261;-74
2022/07/05 02:31:08;;;;;;;7.27;4.00;;;;;;;-142.08;100.00;71646.13;5033401;28;20288;-73
2022/07/05 02:33:52;;;;;;;4.60;3.40;;;;;;;-142.08;100.00;71646.13;5054074;28;20248;-79
2022/07/05 02:36:38;;;;;;;9.23;3.47;;;;;;;-142.08;100.00;71646.13;5068284;28;20281;-75
2022/07/05 02:39:24;;;;;;;11.10;3.87;;;;;;;-142.08;100.00;71646.13;5035213;28;20619;-71
2022/07/05 02:42:11;;;;;;;6.70;4.10;;;;;;;-142.08;100.00;71646.13;5035803;28;20233;-83
2022/07/05 02:44:56;;;;;;;7.20;4.70;;;;;;;-142.08;100.00;71646.13;5050694;28;20213;-70
2022/07/05 02:47:41;;;;;;;7.53;3.80;;;;;;;-142.08;100.00;71646.13;5040526;28;20201;-73
2022/07/05 02:50:26;;;;;;;4.83;3.87;;;;;;;-142.08;100.00;71646.13;5024227;28;20210;-83
2022/07/05 02:53:10;;;;;;;12.43;5.20;;;;;;;-142.08;100.00;71646.13;5061540;28;20193;-75
2022/07/05 02:55:55;;;;;;;7.73;4.70;;;;;;;-142.08;100.00;71646.13;5036747;28;20752;-69
2022/07/05 02:58:40;;;;;;;12.30;6.10;;;;;;;-142.08;100.00;71646.13;5031712;28;20196;-78
2022/07/05 03:01:25;;;;;;;14.03;8.83;;;;;;;-142.08;100.00;71646.13;5051900;28;20256;-79
2022/07/05 03:04:10;;;;;;;14.23;7.07;;;;;;;-142.08;100.00;71646.13;5044855;28;20225;-71
2022/07/05 03:06:55;;;;;;;9.13;6.13;;;;;;;-142.08;100.00;71646.13;5036393;28;20275;-80
2022/07/05 03:09:43;;;;;;;11.10;6.47;;;;;;;-142.08;100.00;71646.13;5031907;28;20609;-73
2022/07/05 03:12:27;;;;;;;9.70;5.70;;;;;;;-142.08;100.00;71646.13;5056857;28;20209;-82
2022/07/05 03:15:11;;;;;;;9.20;5.27;;;;;;;-142.08;100.00;71646.13;5052839;28;20290;-84
2022/07/05 03:17:56;;;;;;;11.27;5.53;;;;;;;-142.08;100.00;71646.13;5028269;28;20634;-86
2022/07/05 03:20:42;;;;;;;10.17;5.03;;;;;;;-142.08;100.00;71646.13;5022182;28;20259;-80
2022/07/05 03:23:26;;;;;;;7.40;4.60;;;;;;;-142.08;100.00;71646.13;5035799;28;20286;-75
2022/07/05 03:26:14;;;;;;;5.33;4.27;;;;;;;-142.08;100.00;71646.13;5036373;28;20237;-76
2022/07/05 03:28:58;;;;;;;6.73;4.70;;;;;;;-142.08;100.00;71646.13;5031393;28;20222;-76
2022/07/05 03:31:43;;;;;;;10.70;4.53;;;;;;;-142.08;100.00;71646.13;5050733;28;20602;-76
2022/07/05 03:34:27;;;;;;;6.93;4.27;;;;;;;-142.08;100.00;71646.13;5035641;28;20204;-80
2022/07/05 03:37:12;;;;;;;10.67;4.93;;;;;;;-142.08;100.00;71646.13;5029931;28;20204;-78
2022/07/05 03:39:57;;;;;;;7.73;4.20;;;;;;;-142.08;100.00;71646.13;5040107;28;20200;-73
2022/07/05 03:42:40;;;;;;;6.90;4.23;;;;;;;-142.08;100.00;71646.13;5042443;28;20275;-74
2022/07/05 03:45:25;;;;;;;9.93;5.10;;;;;;;-142.08;100.00;71646.13;5015045;28;20677;-73
2022/07/05 03:48:10;;;;;;;9.67;5.03;;;;;;;-142.08;100.00;71646.13;5036026;28;20252;-81
2022/07/05 03:50:54;;;;;;;13.00;5.43;;;;;;;-142.08;100.00;71646.13;5032861;28;20201;-75
2022/07/05 03:53:38;;;;;;;10.10;5.20;;;;;;;-142.08;100.00;71646.13;5031829;28;20244;-82
2022/07/05 03:56:24;;;;;;;11.73;5.53;;;;;;;-142.08;100.00;71646.13;5036138;28;20741;-75
2022/07/05 03:59:11;;;;;;;12.83;5.40;;;;;;;-142.08;100.00;71646.13;5034681;28;20329;-81
2022/07/05 04:01:55;;;;;;;10.37;5.27;;;;;;;-142.08;100.00;71646.13;5070314;28;20209;-77
2022/07/05 04:04:40;;;;;;;9.77;5.07;;;;;;;-142.08;100.00;71646.13;5042490;28;20268;-85
2022/07/05 04:07:24;;;;;;;9.90;4.60;;;;;;;-142.08;100.00;71646.13;5026820;28;20233;-76
2022/07/05 04:10:09;;;;;;;6.93;4.97;;;;;;;-142.08;100.00;71646.13;5034490;28;20532;-72
2022/07/05 04:12:53;;;;;;;7.33;5.00;;;;;;;-142.08;100.00;71646.13;5049892;28;20784;-77
2022/07/05 04:15:37;;;;;;;15.50;7.20;;;;;;;-142.08;100.00;71646.13;5063751;28;20259;-83
2022/07/05 04:18:23;;;;;;;14.33;6.73;;;;;;;-142.08;100.00;71646.13;5023128;28;20678;-74
2022/07/05 04:21:07;;;;;;;11.07;6.50;;;;;;;-142.08;100.00;71646.13;5055731;28;20255;-84
2022/07/05 04:23:52;;;;;;;19.17;6.03;;;;;;;-142.08;100.00;71646.13;5039150;28;20271;-72
2022/07/05 04:26:38;;;;;;;14.70;7.10;;;;;;;-142.08;100.00;71646.13;5034548;28;20200;-76
2022/07/05 04:29:23;;;;;;;11.13;6.40;;;;;;;-142.08;100.00;71646.13;5033795;28;20217;-77
2022/07/05 04:32:07;;;;;;;13.57;7.20;;;;;;;-142.08;100.00;71646.13;5056081;28;20205;-75
2022/07/05 04:34:52;;;;;;;10.53;6.77;;;;;;;-142.08;100.00;71646.13;5033696;28;20267;-73
2022/07/05 04:37:36;;;;;;;11.70;6.60;;;;;;;-142.08;100.00;71646.13;5048780;28;20208;-75
2022/07/05 04:40:21;;;;;;;12.60;6.57;;;;;;;-142.08;100.00;71646.13;5030290;28;20202;-72
2022/07/05 04:43:05;;;;;;;9.93;6.53;;;;;;;-142.08;100.00;71646.13;5034364;28;20225;-84
2022/07/05 04:45:49;;;;;;;10.60;6.77;;;;;;;-142.08;100.00;71646.13;5047087;28;20566;-80
2022/07/05 04:48:34;;;;;;;15.13;7.57;;;;;;;-142.08;100.00;71646.13;5050881;28;20574;-76
2022/07/05 04:51:19;;;;;;;11.47;7.73;;;;;;;-142.08;100.00;71646.13;5033320;28;20213;-74
2022/07/05 04:54:03;;;;;;;15.43;8.60;;;;;;;-142.08;100.00;71646.13;5036524;28;20237;-71
2022/07/05 04:56:48;;;;;;;24.60;9.97;;;;;;;-142.08;100.00;71646.13;5050185;28;20209;-83
2022/07/05 04:59:32;;;;;;;14.53;9.23;;;;;;;-142.08;100.00;71646.13;5045660;28;20194;-83
2022/07/05 05:02:16;;;;;;;10.50;7.57;;;;;;;-142.08;100.00;71646.13;5049105;28;20732;-77
2022/07/05 05:05:00;;;;;;;17.33;9.33;;;;;;;-142.08;100.00;71646.13;5054000;28;20245;-72
2022/07/05 05:07:45;;;;;;;12.03;8.30;;;;;;;-142.08;100.00;71646.13;5049786;28;20194;-82
2022/07/05 05:10:29;;;;;;;15.77;9.13;;;;;;;-142.08;100.00;71646.13;5050191;28;20205;-72
2022/07/05 05:13:13;;;;;;;16.07;9.17;;;;;;;-142.08;100.00;71646.13;5053772;28;20229;-82
2022/07/05 05:15:57;;;;;;;13.87;8.60;;;;;;;-142.08;100.00;71646.13;5047528;28;20248;-72
2022/07/05 05:18:41;;;;;;;15.10;10.20;;;;;;;-142.08;100.00;71646.13;5054701;28;20198;-82
2022/07/05 05:21:25;;;;;;;15.30;11.23;;;;;;;-142.08;100.00;71646.13;5038347;28;20572;-75
2022/07/05 05:24:09;;;;;;;15.10;10.87;;;;;;;-142.08;100.00;71646.13;5058011;28;20700;-72
2022/07/05 05:26:53;;;;;;;17.77;12.93;;;;;;;-142.08;100.00;71646.13;5053963;28;20205;-81
2022/07/05 05:29:37;;;;;;;15.67;11.17;;;;;;;-142.08;100.00;71646.13;5036425;28;20209;-77
2022/07/05 05:32:21;;;;;;;18.83;12.57;;;;;;;-142.08;100.00;71646.13;5051752;28;20233;-76
2022/07/05 05:35:06;;;;;;;21.93;13.00;;;;;;;-142.08;100.00;71646.13;5054027;28;20200;-73
2022/07/05 05:37:54;;;;;;;22.17;11.77;;;;;;;-142.08;100.00;71646.13;5053943;28;20204;-82
2022/07/05 05:40:38;;;;;;;17.00;11.80;;;;;;;-142.08;100.00;71646.13;5064625;28;20205;-77
2022/07/05 05:43:22;;;;;;;16.27;11.80;;;;;;;-142.08;100.00;71646.13;5052314;28;20248;-74
2022/07/05 05:46:06;;;;;;;15.83;11.47;;;;;;;-142.08;100.00;71646.13;5029184;28;20651;-77
2022/07/05 05:48:50;;;;;;;17.73;13.57;;;;;;;-142.08;100.00;71646.13;5054063;28;20303;-76
2022/07/05 05:51:34;;;;;;;19.20;14.00;;;;;;;-142.08;100.00;71646.13;5040844;28;20210;-76
2022/07/05 05:54:18;;;;;;;17.07;13.60;;;;;;;-142.08;100.00;71646.13;5049247;28;20293;-73
2022/07/05 05:57:02;;;;;;;14.03;12.57;;;;;;;-142.08;100.00;71646.13;5036755;28;20725;-73
2022/07/05 05:59:46;;;;;;;13.90;11.43;;;;;;;-142.08;100.00;71646.13;5048579;28;20581;-74
2022/07/05 06:02:30;;;;;;;15.63;10.27;;;;;;;-142.08;100.00;71646.13;5049780;28;20221;-74
2022/07/05 06:05:15;;;;;;;16.50;10.00;;;;;;;-142.08;100.00;71646.13;5050323;28;20335;-74
2022/07/05 06:07:59;;;;;;;13.17;10.17;;;;;;;-142.08;100.00;71646.13;5050441;28;20782;-72
2022/07/05 06:10:44;;;;;;;11.70;9.43;;;;;;;-142.08;100.00;71646.13;5049084;28;20233;-78
2022/07/05 06:13:28;;;;;;;11.43;9.37;;;;;;;-142.08;100.00;71646.13;5031727;28;20213;-77
2022/07/05 06:16:12;;;;;;;8.73;7.03;;;;;;;-142.08;100.00;71646.13;5048447;28;20577;-73
2022/07/05 06:18:56;;;;;;;9.20;6.50;;;;;;;-142.08;100.00;71646.13;5035137;28;21007;-74
2022/07/05 06:21:40;;;;;;;8.27;7.50;;;;;;;-142.08;100.00;71646.13;5046412;28;20229;-78
2022/07/05 06:24:24;;;;;;;8.30;6.43;;;;;;;-142.08;100.00;71646.13;5049845;28;20279;-79
2022/07/05 06:27:08;;;;;;;7.70;6.10;;;;;;;-142.08;100.00;71646.13;5050018;28;20725;-81
2022/07/05 06:29:52;;;;;;;7.97;5.83;;;;;;;-142.08;100.00;71646.13;5045641;28;20762;-80
2022/07/05 06:32:37;;;;;;;6.87;5.70;;;;;;;-142.08;100.00;71646.13;5046966;28;20224;-83
2022/07/05 06:35:22;;;;;;;6.13;5.63;;;;;;;-142.08;100.00;71646.13;5046804;28;20194;-85
2022/07/05 06:38:08;;;;;;;7.07;5.93;;;;;;;-142.08;100.00;71646.13;5047151;28;20201;-85
2022/07/05 06:40:53;;;;;;;6.80;6.20;;;;;;;-142.08;100.00;71646.13;5056987;28;20197;-84
2022/07/05 06:43:37;;;;;;;6.63;5.27;;;;;;;-142.08;100.00;71646.13;5045615;28;20224;-83
2022/07/05 06:46:26;;;;;;;6.93;6.20;;;;;;;-142.08;100.00;71646.13;5061185;28;20193;-82
2022/07/05 06:49:09;;;;;;;8.83;5.87;;;;;;;-142.08;100.00;71646.13;5042750;28;20335;-77
2022/07/05 06:51:54;;;;;;;6.77;6.07;;;;;;;-142.08;100.00;71646.13;5028318;28;20712;-74
2022/07/05 06:54:37;;;;;;;8.60;6.73;;;;;;;-142.08;100.00;71646.13;5039795;28;20253;-72
2022/07/05 06:57:22;;;;;;;8.67;6.10;;;;;;;-142.08;100.00;71646.13;5049356;28;20256;-67
2022/07/05 07:00:07;;;;;;;9.90;5.97;;;;;;;-142.08;100.00;71646.13;5044959;28;20245;-66
2022/07/05 07:02:51;;;;;;;5.30;4.80;;;;;;;-142.08;100.00;71646.13;5053604;28;20253;-66
2022/07/05 07:05:35;;;;;;;3.92;3.63;;;;;;;-142.08;100.00;71646.13;5051231;28;20299;-66
2022/07/05 07:11:22;;;;;;;5.20;3.47;;;;;;;-142.08;100.00;71646.13;5045924;28;20295;-66
2022/07/05 07:14:06;;;;;;;3.53;3.22;;;;;;;-142.08;100.00;71646.13;5045921;28;20277;-66
2022/07/05 07:16:50;;;;;;;5.32;3.47;;;;;;;-142.08;100.00;71646.13;5050765;28;20260;-65
2022/07/05 07:19:34;;;;;;;5.13;2.85;;;;;;;-142.08;100.00;71646.13;5046650;28;20670;-65
2022/07/05 07:22:18;;;;;;;2.78;2.58;;;;;;;-142.08;100.00;71646.13;5049647;28;20205;-65
2022/07/05 07:25:04;;;;;;;4.70;3.10;;;;;;;-142.08;100.00;71646.13;5050236;28;20206;-65
2022/07/05 07:27:54;;;;;;;4.35;2.90;;;;;;;-142.08;100.00;71646.13;5047992;28;20276;-66
2022/07/05 07:30:38;;;;;;;4.32;2.85;;;;;;;-142.08;100.00;71646.13;5042858;28;20253;-66
2022/07/05 07:33:22;;;;;;;3.35;3.00;;;;;;;-142.08;100.00;71646.13;5047454;28;20608;-66
2022/07/05 07:36:06;;;;;;;6.15;3.47;;;;;;;-142.08;100.00;71646.13;5036625;28;20622;-66
2022/07/05 07:38:51;;;;;;;5.43;3.92;;;;;;;-142.08;100.00;71646.13;5053393;28;20912;-66
2022/07/05 07:41:35;;;;;;;5.85;3.70;;;;;;;-142.08;100.00;71646.13;5046062;28;20213;-66
2022/07/05 07:44:19;;;;;;;4.00;3.33;;;;;;;-142.08;100.00;71646.13;5059001;28;20214;-66
2022/07/05 07:47:03;;;;;;;5.50;3.20;;;;;;;-142.08;100.00;71646.13;5049330;28;20201;-66
2022/07/05 07:49:48;;;;;;;3.72;2.38;;;;;;;-142.08;100.00;71646.13;5041896;28;20205;-66
2022/07/05 07:52:33;;;;;;;4.90;2.90;;;;;;;-142.08;100.00;71646.13;5044148;28;20683;-67
2022/07/05 07:55:18;;;;;;;4.25;2.28;;;;;;;-142.08;100.00;71646.13;5043465;28;20256;-66
2022/07/05 07:58:03;;;;;;;3.03;2.17;;;;;;;-142.08;100.00;71646.13;5045118;28;20623;-67
2022/07/05 08:00:47;;;;;;;3.03;1.83;;;;;;;-142.08;100.00;71646.13;5042269;28;20287;-66
2022/07/05 08:03:32;;;;;;;8.68;2.38;;;;;;;-142.08;100.00;71646.13;5046039;28;20299;-67
2022/07/05 08:06:16;;;;;;;5.85;2.67;;;;;;;-142.08;100.00;71646.13;5046669;28;20312;-67
2022/07/05 08:09:00;;;;;;;3.17;2.10;;;;;;;-142.08;100.00;71646.13;5047139;28;20267;-67
2022/07/05 08:11:47;;;;;;;4.80;2.50;;;;;;;-142.08;100.00;71646.13;5047611;28;20244;-67
2022/07/05 08:14:32;;;;;;;7.28;2.33;;;;;;;-142.08;100.00;71646.13;5051150;28;20193;-67
2022/07/05 08:17:16;;;;;;;2.65;1.98;;;;;;;-142.08;100.00;71646.13;5053237;28;20205;-68
2022/07/05 08:23:03;;;;;;;3.63;1.42;;;;;;;-142.08;100.00;71646.13;5033909;28;20216;-66
2022/07/05 08:25:47;;;;;;;2.40;1.48;;;;;;;-142.08;100.00;71646.13;5050483;28;20694;-65
2022/07/05 08:28:31;;;;;;;4.10;1.27;;;;;;;-142.08;100.00;71646.13;5052531;28;20245;-66
2022/07/05 08:31:15;;;;;;;3.20;1.45;;;;;;;-142.08;100.00;71646.13;5044377;28;20922;-66
2022/07/05 08:33:59;;;;;;;5.63;1.60;;;;;;;-142.08;100.00;71646.13;5046883;28;20190;-66
2022/07/05 08:36:43;;;;;;;1.90;1.30;;;;;;;-142.08;100.00;71646.13;5045562;28;20225;-67
2022/07/05 08:39:28;;;;;;;2.50;1.10;;;;;;;-142.08;100.00;71646.13;5051143;28;20213;-67
2022/07/05 08:42:12;;;;;;;2.25;1.20;;;;;;;-142.08;100.00;71646.13;5045066;28;20213;-66
2022/07/05 08:44:58;;;;;;;2.88;1.10;;;;;;;-142.08;100.00;71646.13;5045942;28;20198;-66
2022/07/05 08:47:44;;;;;;;1.98;1.00;;;;;;;-142.08;100.00;71646.13;5037951;28;20193;-66
2022/07/05 08:50:30;;;;;;;5.25;1.20;;;;;;;-142.08;100.00;71646.13;5044491;28;20271;-67
2022/07/05 08:53:21;;;;;;;2.75;1.52;;;;;;;-142.08;100.00;71646.13;5047842;28;20201;-67
2022/07/05 08:56:07;;;;;;;2.92;1.50;;;;;;;-142.08;100.00;71646.13;5054399;28;20208;-67
2022/07/05 08:58:51;;;;;;;1.60;0.93;;;;;;;-142.08;100.00;71646.13;5045842;28;20727;-67
2022/07/05 09:01:36;;;;;;;2.38;1.10;;;;;;;-142.08;100.00;71646.13;5042646;28;20749;-67
2022/07/05 09:04:23;;;;;;;3.05;1.10;;;;;;;-142.08;100.00;71646.13;5052614;28;20283;-67
2022/07/05 09:07:08;;;;;;;5.63;1.50;;;;;;;-142.08;100.00;71646.13;5048466;28;20252;-67
2022/07/05 09:09:55;;;;;;;3.20;1.30;;;;;;;-142.08;100.00;71646.13;5052424;28;20208;-68
2022/07/05 09:12:39;;;;;;;2.45;1.10;;;;;;;-142.08;100.00;71646.13;5049519;28;20205;-67
2022/07/05 09:15:24;;;;;;;3.05;1.10;;;;;;;-142.08;100.00;71646.13;5054031;28;20232;-67
2022/07/05 09:18:10;;;;;;;3.33;1.10;;;;;;;-142.08;100.00;71646.13;5051760;28;20243;-68
2022/07/05 09:21:11;;;;;;;2.67;1.08;;;;;;;-142.08;100.00;71646.13;5051197;28;20575;-68
2022/07/05 09:24:19;;;;;;;0.80;0.75;;;;;;;-142.08;100.00;71646.13;5035832;28;20236;-68
2022/07/05 09:27:05;;;;;;;1.10;0.82;;;;;;;-142.08;100.00;71646.13;5054922;28;20267;-68
2022/07/05 09:29:56;;;;;;;2.50;0.80;;;;;;;-142.08;100.00;71646.13;5051358;28;20213;-68
2022/07/05 09:32:40;;;;;;;3.83;0.90;;;;;;;-142.08;100.00;71646.13;5044523;28;20189;-68
2022/07/05 09:35:24;;;;;;;1.67;0.90;;;;;;;-142.08;100.00;71646.13;5038486;28;20341;-68
2022/07/05 09:38:19;;;;;;;3.92;1.20;;;;;;;-142.08;100.00;71646.13;5046181;28;20252;-68
2022/07/05 09:41:03;;;;;;;1.65;0.93;;;;;;;-142.08;100.00;71646.13;5047587;28;20210;-68
2022/07/05 09:43:47;;;;;;;3.15;1.00;;;;;;;-142.08;100.00;71646.13;5049099;28;20224;-66
2022/07/05 09:46:32;;;;;;;2.88;0.98;;;;;;;-142.08;100.00;71646.13;5049491;28;20197;-66
2022/07/05 09:49:25;;;;;;;1.88;0.70;;;;;;;-142.08;100.00;71646.13;5053336;28;20247;-66
2022/07/05 09:52:11;;;;;;;4.13;1.05;;;;;;;-142.08;100.00;71646.13;5053743;28;20205;-66
2022/07/05 09:55:16;;;;;;;1.90;1.17;;;;;;;-142.08;100.00;71646.13;5049193;28;20218;-67
2022/07/05 09:58:00;;;;;;;0.95;0.90;;;;;;;-142.08;100.00;71646.13;5054417;28;20342;-65
2022/07/05 10:00:44;;;;;;;2.50;0.95;;;;;;;-142.08;100.00;71646.13;5050375;28;20234;-66
2022/07/05 10:03:28;;;;;;;4.20;0.80;;;;;;;-142.08;100.00;71646.13;5050717;28;20257;-66
2022/07/05 10:06:12;;;;;;;2.83;1.10;;;;;;;-142.08;100.00;71646.13;5052672;28;20200;-68
2022/07/05 10:08:58;;;;;;;1.38;0.68;;;;;;;-142.08;100.00;71646.13;5053235;28;20272;-68
2022/07/05 10:11:44;;;;;;;7.18;1.17;;;;;;;-142.08;100.00;71646.13;5053276;28;20209;-68
2022/07/05 10:14:29;;;;;;;2.33;1.00;;;;;;;-142.08;100.00;71646.13;5045743;28;20217;-68
2022/07/05 10:17:13;;;;;;;2.33;1.00;;;;;;;-142.08;100.00;71646.13;5056505;28;20204;-68
2022/07/05 10:19:59;;;;;;;4.72;1.00;;;;;;;-142.08;100.00;71646.13;5060805;28;20213;-69
2022/07/05 10:22:44;;;;;;;4.95;1.00;;;;;;;-142.08;100.00;71646.13;5047580;28;20714;-68
2022/07/05 10:25:28;;;;;;;1.73;0.80;;;;;;;-142.08;100.00;71646.13;5057285;28;20221;-67
2022/07/05 10:28:12;;;;;;;1.10;0.77;;;;;;;-142.08;100.00;71646.13;5052490;28;20232;-67
2022/07/05 10:30:59;;;;;;;3.67;0.95;;;;;;;-142.08;100.00;71646.13;5055580;28;20205;-66
2022/07/05 10:33:44;;;;;;;2.85;0.90;;;;;;;-142.08;100.00;71646.13;5048887;28;20197;-67
2022/07/05 10:36:28;;;;;;;0.85;0.73;;;;;;;-142.08;100.00;71646.13;5050935;28;20248;-68
2022/07/05 10:39:14;;;;;;;2.70;0.80;;;;;;;-142.08;100.00;71646.13;5055744;28;20248;-68
2022/07/05 10:41:58;;;;;;;1.42;0.70;;;;;;;-142.08;100.00;71646.13;5045634;28;20292;-69
2022/07/05 10:44:43;;;;;;;1.80;0.80;;;;;;;-142.08;100.00;71646.13;5060651;28;20572;-68
2022/07/05 10:47:29;;;;;;;1.15;0.70;;;;;;;-142.08;100.00;71646.13;5050891;28;20271;-68
2022/07/05 10:50:13;;;;;;;2.58;0.90;;;;;;;-142.08;100.00;71646.13;5060678;28;20256;-68
2022/07/05 10:53:02;;;;;;;0.85;0.70;;;;;;;-142.08;100.00;71646.13;5054373;28;20665;-69
2022/07/05 10:56:11;;;;;;;2.78;0.90;;;;;;;-142.08;100.00;71646.13;5054354;28;20248;-68
2022/07/05 10:59:09;;;;;;;2.20;0.80;;;;;;;-142.08;100.00;71646.13;5056914;28;20308;-69
2022/07/05 11:02:12;;;;;;;2.50;1.05;;;;;;;-142.08;100.00;71646.13;5040278;28;20197;-68
2022/07/05 11:04:56;;;;;;;2.45;0.93;;;;;;;-142.08;100.00;71646.13;5047054;28;20244;-69
2022/07/05 11:08:00;;;;;;;5.97;0.93;;;;;;;-142.08;100.00;71646.13;5032245;28;20217;-71
2022/07/05 11:11:09;;;;;;;5.25;1.20;;;;;;;-142.08;100.00;71646.13;5050168;28;20198;-72
2022/07/05 11:13:54;;;;;;;1.05;0.70;;;;;;;-142.08;100.00;71646.13;5050636;28;20232;-71
2022/07/05 11:16:38;;;;;;;2.88;0.90;;;;;;;-142.08;100.00;71646.13;5051505;28;20206;-71
2022/07/05 11:19:23;;;;;;;1.90;0.93;;;;;;;-142.08;100.00;71646.13;5052516;28;20198;-71
2022/07/05 11:22:07;;;;;;;2.35;1.02;;;;;;;-142.08;100.00;71646.13;5050825;28;20202;-70
2022/07/05 11:24:51;;;;;;;2.38;1.00;;;;;;;-142.08;100.00;71646.13;5057158;28;20585;-71
2022/07/05 11:27:35;;;;;;;2.88;0.80;;;;;;;-142.08;100.00;71646.13;5045670;28;20210;-72
2022/07/05 11:30:22;;;;;;;4.00;1.35;;;;;;;-142.08;100.00;71646.13;5049723;28;20773;-71
2022/07/05 11:33:37;;;;;;;3.85;1.00;;;;;;;-142.08;100.00;71646.13;5051532;28;20239;-71
2022/07/05 11:36:30;;;;;;;2.65;0.95;;;;;;;-142.08;100.00;71646.13;5050238;28;20202;-71
2022/07/05 11:39:17;;;;;;;2.22;1.00;;;;;;;-142.08;100.00;71646.13;5050363;28;20586;-70
2022/07/05 11:42:00;;;;;;;1.88;0.90;;;;;;;-142.08;100.00;71646.13;5052611;28;20194;-72
2022/07/05 11:44:49;;;;;;;3.97;1.00;;;;;;;-142.08;100.00;71646.13;5056612;28;20623;-71
2022/07/05 11:47:34;;;;;;;3.03;1.08;;;;;;;-142.08;100.00;71646.13;5045135;28;20197;-71
2022/07/05 11:50:26;;;;;;;2.35;1.00;;;;;;;-142.08;100.00;71646.13;5053072;28;20229;-72
2022/07/05 11:53:11;;;;;;;3.63;0.93;;;;;;;-142.08;100.00;71646.13;5051116;28;20243;-69
2022/07/05 11:55:59;;;;;;;2.70;0.73;;;;;;;-142.08;100.00;71646.13;5047174;28;20315;-71
2022/07/05 11:58:44;;;;;;;2.35;1.20;;;;;;;-142.08;100.00;71646.13;5051211;28;20189;-71
2022/07/05 12:01:28;;;;;;;2.20;1.17;;;;;;;-142.08;100.00;71646.13;5047588;28;20220;-71
2022/07/05 12:04:20;;;;;;;3.15;1.00;;;;;;;-142.08;100.00;71646.13;5056703;28;20232;-71
2022/07/05 12:07:04;;;;;;;2.33;1.00;;;;;;;-142.08;100.00;71646.13;5054868;28;20267;-71
2022/07/05 12:13:02;;;;;;;4.10;1.38;;;;;;;-142.08;100.00;71646.13;5046596;28;20758;-69
2022/07/05 12:15:47;;;;;;;1.67;1.00;;;;;;;-142.08;100.00;71646.13;5065654;28;20246;-71
2022/07/05 12:18:30;;;;;;;3.45;1.20;;;;;;;-142.08;100.00;71646.13;5047282;28;20198;-70
2022/07/05 12:21:15;;;;;;;2.03;1.10;;;;;;;-142.08;100.00;71646.13;5044339;28;20812;-70
2022/07/05 12:23:59;;;;;;;3.58;0.88;;;;;;;-142.08;100.00;71646.13;5055391;28;20274;-70
2022/07/05 12:26:43;;;;;;;2.95;1.00;;;;;;;-142.08;100.00;71646.13;5048604;28;20732;-70
2022/07/05 12:29:28;;;;;;;1.85;1.15;;;;;;;-142.08;100.00;71646.13;5038886;28;20209;-70
2022/07/05 12:32:12;;;;;;;2.95;1.10;;;;;;;-142.08;100.00;71646.13;5051004;28;20210;-69
2022/07/05 12:34:58;;;;;;;2.15;0.93;;;;;;;-142.08;100.00;71646.13;5038293;28;20276;-69
2022/07/05 12:37:43;;;;;;;3.20;1.20;;;;;;;-142.08;100.00;71646.13;5045907;28;20282;-69
2022/07/05 12:40:28;;;;;;;2.17;1.00;;;;;;;-142.08;100.00;71646.13;5042776;28;20217;-70
2022/07/05 12:43:14;;;;;;;4.63;1.08;;;;;;;-142.08;100.00;71646.13;5047355;28;20654;-70
2022/07/05 12:46:03;;;;;;;2.15;1.00;;;;;;;-142.08;100.00;71646.13;5037061;28;20229;-70
2022/07/05 12:48:53;;;;;;;2.78;0.88;;;;;;;-142.08;100.00;71646.13;5054797;28;20868;-70
2022/07/05 12:51:42;;;;;;;1.10;0.80;;;;;;;-142.08;100.00;71646.13;5049688;28;20217;-72
2022/07/05 13:00:32;;;;;;;2.60;0.90;;;;;;;-142.08;100.00;71646.13;5046416;28;20252;-71
2022/07/05 13:03:16;;;;;;;2.25;0.85;;;;;;;-142.08;100.00;71646.13;5057346;28;20280;-71
2022/07/05 13:06:02;;;;;;;2.60;0.73;;;;;;;-142.08;100.00;71646.13;5048868;28;20209;-72
2022/07/05 13:08:56;;;;;;;3.00;0.93;;;;;;;-142.08;100.00;71646.13;5050413;28;20204;-71
2022/07/05 13:11:41;;;;;;;1.33;0.75;;;;;;;-142.08;100.00;71646.13;5042334;28;20236;-72
2022/07/05 13:14:25;;;;;;;2.97;0.90;;;;;;;-142.08;100.00;71646.13;5048315;28;20240;-71
2022/07/05 13:17:15;;;;;;;2.15;0.80;;;;;;;-142.08;100.00;71646.13;5044067;28;20205;-71